createdAt,value
2022-11-17T00:01:31.806Z,9.10
2022-11-17T00:05:39.852Z,12.10
2022-11-17T00:09:48.121Z,9.90
2022-11-17T00:14:13.823Z,11.30
2022-11-17T00:18:39.506Z,9.70
2022-11-17T00:22:47.354Z,10.00
2022-11-17T00:27:03.505Z,10.30
2022-11-17T00:31:31.058Z,12.80
2022-11-17T00:35:39.040Z,13.80
2022-11-17T00:39:46.564Z,14.20
2022-11-17T00:43:54.047Z,13.90
2022-11-17T00:48:02.591Z,13.90
2022-11-17T00:52:11.263Z,13.80
2022-11-17T00:56:18.654Z,16.20
2022-11-17T01:00:30.152Z,15.00
2022-11-17T01:04:38.068Z,15.20
2022-11-17T01:08:46.411Z,12.50
2022-11-17T01:12:54.455Z,13.20
2022-11-17T01:17:02.642Z,14.70
2022-11-17T01:21:12.959Z,14.20
2022-11-17T01:25:22.022Z,11.90
2022-11-17T01:29:30.018Z,12.20
2022-11-17T01:33:37.988Z,12.40
2022-11-17T01:37:45.739Z,15.50
2022-11-17T01:41:54.185Z,14.80
2022-11-17T01:46:02.236Z,12.90
2022-11-17T01:50:14.677Z,12.00
2022-11-17T01:54:24.868Z,12.00
2022-11-17T01:58:35.618Z,10.90
2022-11-17T02:02:44.603Z,12.90
2022-11-17T02:06:52.834Z,13.20
2022-11-17T02:11:00.892Z,12.80
2022-11-17T02:15:09.838Z,10.40
2022-11-17T02:19:18.916Z,11.40
2022-11-17T02:24:14.181Z,9.50
2022-11-17T02:28:23.683Z,13.20
2022-11-17T02:32:35.340Z,14.40
2022-11-17T02:36:47.631Z,12.20
2022-11-17T02:41:03.327Z,10.80
2022-11-17T02:45:15.489Z,10.70
2022-11-17T02:49:27.804Z,12.70
2022-11-17T02:53:35.816Z,11.50
2022-11-17T02:57:44.723Z,11.30
2022-11-17T03:02:22.065Z,11.00
2022-11-17T03:06:38.705Z,11.30
2022-11-17T03:10:53.720Z,12.90
2022-11-17T03:15:09.373Z,13.30
2022-11-17T03:19:20.624Z,12.00
2022-11-17T03:23:33.434Z,13.10
2022-11-17T03:27:44.384Z,10.50
2022-11-17T03:31:54.009Z,11.30
2022-11-17T03:36:05.674Z,13.20
2022-11-17T03:40:16.267Z,12.10
2022-11-17T03:44:26.724Z,11.60
2022-11-17T03:48:38.140Z,11.80
2022-11-17T03:52:46.573Z,11.40
2022-11-17T03:56:59.632Z,15.20
2022-11-17T04:01:09.578Z,12.70
2022-11-17T04:05:18.940Z,13.10
2022-11-17T04:09:26.709Z,13.50
2022-11-17T04:13:52.237Z,12.70
2022-11-17T04:18:00.794Z,14.90
2022-11-17T04:22:09.352Z,16.00
2022-11-17T04:26:35.636Z,17.60
2022-11-17T04:30:43.987Z,16.80
2022-11-17T04:34:51.491Z,15.00
2022-11-17T04:39:00.817Z,16.70
2022-11-17T04:43:11.480Z,16.00
2022-11-17T04:47:19.480Z,21.00
2022-11-17T04:51:28.728Z,18.80
2022-11-17T04:55:37.042Z,18.80
2022-11-17T04:59:45.796Z,18.00
2022-11-17T05:03:54.802Z,18.00
2022-11-17T05:08:02.309Z,22.00
2022-11-17T05:12:28.895Z,19.50
2022-11-17T05:17:08.479Z,20.80
2022-11-17T05:21:17.216Z,18.80
2022-11-17T05:25:28.779Z,18.40
2022-11-17T05:29:41.798Z,20.50
2022-11-17T05:33:57.413Z,22.30
2022-11-17T05:38:09.272Z,20.30
2022-11-17T05:42:20.479Z,19.00
2022-11-17T05:46:37.622Z,17.60
2022-11-17T05:50:48.543Z,18.40
2022-11-17T05:55:04.195Z,16.60
2022-11-17T05:59:24.707Z,17.10
2022-11-17T06:03:39.060Z,15.30
2022-11-17T06:07:47.058Z,19.90
2022-11-17T06:12:04.098Z,15.60
2022-11-17T06:16:16.190Z,14.90
2022-11-17T06:20:28.281Z,18.40
2022-11-17T06:24:40.165Z,16.50
2022-11-17T06:28:50.621Z,18.90
2022-11-17T06:33:01.327Z,18.00
2022-11-17T06:37:09.643Z,15.90
2022-11-17T06:41:17.433Z,18.50
2022-11-17T06:45:25.913Z,20.60
2022-11-17T06:49:34.640Z,23.10
2022-11-17T06:53:42.467Z,19.80
2022-11-17T06:57:53.409Z,17.80
2022-11-17T07:02:04.039Z,18.30
2022-11-17T07:06:12.361Z,16.70
2022-11-17T07:10:20.797Z,18.50
2022-11-17T07:14:28.267Z,19.70
2022-11-17T07:18:36.635Z,18.70
2022-11-17T07:22:45.152Z,17.80
2022-11-17T07:26:52.456Z,15.70
2022-11-17T07:31:04.726Z,15.20
2022-11-17T07:35:13.055Z,12.30
2022-11-17T07:39:22.109Z,14.90
2022-11-17T07:43:30.043Z,13.80
2022-11-17T07:47:39.383Z,14.80
2022-11-17T07:51:51.370Z,13.90
2022-11-17T07:56:06.019Z,13.80
2022-11-17T08:00:15.847Z,15.50
2022-11-17T08:04:24.054Z,15.90
2022-11-17T08:08:32.231Z,15.90
2022-11-17T08:12:40.954Z,18.60
2022-11-17T08:16:48.295Z,15.90
2022-11-17T08:21:03.917Z,14.20
2022-11-17T08:25:15.313Z,12.40
2022-11-17T08:29:24.471Z,12.70
2022-11-17T08:33:33.356Z,10.70
2022-11-17T08:37:44.825Z,11.50
2022-11-17T08:41:54.170Z,12.30
2022-11-17T08:46:02.502Z,10.20
2022-11-17T08:50:11.929Z,11.50
2022-11-17T08:54:19.595Z,9.70
2022-11-17T08:58:27.213Z,10.90
2022-11-17T09:02:35.047Z,9.60
2022-11-17T09:06:42.245Z,12.10
2022-11-17T09:10:51.929Z,10.10
2022-11-17T09:14:59.258Z,10.90
2022-11-17T09:19:07.007Z,10.60
2022-11-17T09:23:15.093Z,9.40
2022-11-17T09:27:23.312Z,15.50
2022-11-17T09:31:30.899Z,10.20
2022-11-17T09:35:39.580Z,9.70
2022-11-17T09:39:46.992Z,10.50
2022-11-17T09:44:00.871Z,13.50
2022-11-17T09:48:39.352Z,12.80
2022-11-17T09:52:49.117Z,14.50
2022-11-17T09:56:57.087Z,12.30
2022-11-17T10:01:04.962Z,12.90
2022-11-17T10:05:18.167Z,13.50
2022-11-17T10:09:35.645Z,10.80
2022-11-17T10:13:43.226Z,10.00
2022-11-17T10:17:51.086Z,10.50
2022-11-17T10:22:08.371Z,9.00
2022-11-17T10:26:17.177Z,9.00
2022-11-17T10:30:26.605Z,10.00
2022-11-17T10:34:41.044Z,8.70
2022-11-17T10:38:52.018Z,9.70
2022-11-17T10:43:24.333Z,8.80
2022-11-17T10:47:35.232Z,7.20
2022-11-17T10:51:42.990Z,10.40
2022-11-17T10:55:57.226Z,9.90
2022-11-17T11:00:05.784Z,8.90
2022-11-17T11:04:30.793Z,8.50
2022-11-17T11:08:48.769Z,9.30
2022-11-17T11:13:21.475Z,9.20
2022-11-17T11:17:49.145Z,11.30
2022-11-17T11:22:22.771Z,8.20
2022-11-17T11:26:46.211Z,8.60
2022-11-17T11:31:02.343Z,8.40
2022-11-17T11:35:37.652Z,7.50
2022-11-17T11:39:52.111Z,6.50
2022-11-17T11:44:26.312Z,6.90
2022-11-17T11:48:35.325Z,6.80
2022-11-17T11:52:47.474Z,6.60
2022-11-17T11:56:55.286Z,7.10
2022-11-17T12:01:07.687Z,7.10
2022-11-17T12:05:23.595Z,7.90
2022-11-17T12:10:01.558Z,7.90
2022-11-17T12:14:12.871Z,8.20
2022-11-17T12:18:33.648Z,7.80
2022-11-17T12:23:02.295Z,8.10
2022-11-17T12:27:34.318Z,8.60
2022-11-17T12:31:48.900Z,8.50
2022-11-17T12:36:30.196Z,10.00
2022-11-17T12:40:49.585Z,7.50
2022-11-17T12:45:05.613Z,8.90
2022-11-17T12:49:29.748Z,7.90
2022-11-17T12:53:57.966Z,9.00
2022-11-17T12:58:16.083Z,8.00
2022-11-17T13:02:38.301Z,8.40
2022-11-17T13:07:07.646Z,9.90
2022-11-17T13:11:18.564Z,9.40
2022-11-17T13:15:26.561Z,9.50
2022-11-17T13:19:42.553Z,8.80
2022-11-17T13:23:50.233Z,10.20
2022-11-17T13:28:04.226Z,8.60
2022-11-17T13:32:18.723Z,10.00
2022-11-17T13:36:27.310Z,11.60
2022-11-17T13:40:35.880Z,8.90
2022-11-17T13:44:43.390Z,10.70
2022-11-17T13:48:52.409Z,9.20
2022-11-17T13:53:02.299Z,8.90
2022-11-17T13:57:16.823Z,9.10
2022-11-17T14:01:29.794Z,9.00
2022-11-17T14:05:37.867Z,8.90
2022-11-17T14:09:45.923Z,9.70
2022-11-17T14:13:58.822Z,10.10
2022-11-17T14:18:19.771Z,10.00
2022-11-17T14:22:31.833Z,9.70
2022-11-17T14:26:45.075Z,8.80
2022-11-17T14:30:53.705Z,11.20
2022-11-17T14:35:01.812Z,10.00
2022-11-17T14:39:16.896Z,11.40
2022-11-17T14:43:25.293Z,11.80
2022-11-17T14:47:33.349Z,10.20
2022-11-17T14:51:41.008Z,10.00
2022-11-17T14:55:48.962Z,8.30
2022-11-17T14:59:56.992Z,8.40
2022-11-17T15:04:27.205Z,9.20
2022-11-17T15:08:33.501Z,13.60
2022-11-17T15:12:40.861Z,11.80
2022-11-17T15:16:48.664Z,10.60
2022-11-17T15:21:04.387Z,10.00
2022-11-17T15:25:13.289Z,10.50
2022-11-17T15:29:21.529Z,13.30
2022-11-17T15:33:29.410Z,12.10
2022-11-17T15:37:37.283Z,13.00
2022-11-17T15:41:45.341Z,11.30
2022-11-17T15:45:52.939Z,10.90
2022-11-17T15:50:00.843Z,11.50
2022-11-17T15:54:08.521Z,12.00
2022-11-17T15:58:16.593Z,12.10
2022-11-17T16:02:24.540Z,13.60
2022-11-17T16:06:33.474Z,13.30
2022-11-17T16:10:42.243Z,12.60
2022-11-17T16:14:49.644Z,11.70
2022-11-17T16:18:57.936Z,14.60
2022-11-17T16:23:05.247Z,12.90
2022-11-17T16:27:13.707Z,13.10
2022-11-17T16:31:23.694Z,14.10
2022-11-17T16:35:31.206Z,13.90
2022-11-17T16:39:39.875Z,11.80
2022-11-17T16:43:50.509Z,10.70
2022-11-17T16:47:58.220Z,11.80
2022-11-17T16:52:06.159Z,12.50
2022-11-17T16:56:14.774Z,11.40
2022-11-17T17:00:23.487Z,15.40
2022-11-17T17:04:33.818Z,14.80
2022-11-17T17:08:42.206Z,13.80
2022-11-17T17:12:51.099Z,12.50
2022-11-17T17:16:58.598Z,13.70
2022-11-17T17:21:07.914Z,12.20
2022-11-17T17:25:16.367Z,13.80
2022-11-17T17:29:24.531Z,15.10
2022-11-17T17:33:35.572Z,13.00
2022-11-17T17:37:43.317Z,12.40
2022-11-17T17:41:54.840Z,11.80
2022-11-17T17:46:04.124Z,10.70
2022-11-17T17:50:15.192Z,10.10
2022-11-17T17:54:25.365Z,9.40
2022-11-17T17:58:40.302Z,11.30
2022-11-17T18:02:50.136Z,11.40
2022-11-17T18:06:59.498Z,10.80
2022-11-17T18:11:09.681Z,11.80
2022-11-17T18:15:18.544Z,11.40
2022-11-17T18:19:31.529Z,10.70
2022-11-17T18:23:41.373Z,9.50
2022-11-17T18:27:49.151Z,13.20
2022-11-17T18:31:56.848Z,11.80
2022-11-17T18:36:11.849Z,10.50
2022-11-17T18:40:20.007Z,11.90
2022-11-17T18:44:30.802Z,10.30
2022-11-17T18:48:41.148Z,10.60
2022-11-17T18:52:50.399Z,10.00
2022-11-17T18:57:01.744Z,12.00
2022-11-17T19:01:11.456Z,12.60
2022-11-17T19:05:19.302Z,11.50
2022-11-17T19:09:27.187Z,12.40
2022-11-17T19:13:37.500Z,11.40
2022-11-17T19:17:47.063Z,12.90
2022-11-17T19:21:55.296Z,11.60
2022-11-17T19:26:05.895Z,14.50
2022-11-17T19:30:15.755Z,14.20
2022-11-17T19:34:23.278Z,11.40
2022-11-17T19:38:34.637Z,12.80
2022-11-17T19:42:43.003Z,10.80
2022-11-17T19:46:50.988Z,10.30
2022-11-17T19:50:59.046Z,10.90
2022-11-17T19:55:07.363Z,15.60
2022-11-17T19:59:16.689Z,13.90
2022-11-17T20:03:24.969Z,11.80
2022-11-17T20:07:34.270Z,11.80
2022-11-17T20:11:42.585Z,11.10
2022-11-17T20:15:51.091Z,13.70
2022-11-17T20:19:58.671Z,13.00
2022-11-17T20:24:06.032Z,16.60
2022-11-17T20:28:13.757Z,14.60
2022-11-17T20:32:21.174Z,14.20
2022-11-17T20:36:29.192Z,10.60
2022-11-17T20:40:37.084Z,13.50
2022-11-17T20:44:45.537Z,11.60
2022-11-17T20:48:53.977Z,15.60
2022-11-17T20:53:01.740Z,14.20
2022-11-17T20:57:09.523Z,12.60
2022-11-17T21:01:18.887Z,12.70
2022-11-17T21:05:26.455Z,12.00
2022-11-17T21:09:36.022Z,13.60
2022-11-17T21:13:44.508Z,11.50
2022-11-17T21:18:10.131Z,16.10
2022-11-17T21:22:17.867Z,14.50
2022-11-17T21:26:25.734Z,13.60
2022-11-17T21:30:34.377Z,12.50
2022-11-17T21:34:45.637Z,13.10
2022-11-17T21:38:57.272Z,12.90
2022-11-17T21:43:04.913Z,13.70
2022-11-17T21:47:12.606Z,16.20
2022-11-17T21:51:22.360Z,15.50
2022-11-17T21:55:30.619Z,14.10
2022-11-17T21:59:38.286Z,14.50
2022-11-17T22:03:46.560Z,14.40
2022-11-17T22:07:54.861Z,12.70
2022-11-17T22:12:05.450Z,13.70
2022-11-17T22:16:14.796Z,15.20
2022-11-17T22:20:22.672Z,15.40
2022-11-17T22:24:30.396Z,12.50
2022-11-17T22:28:38.157Z,12.10
2022-11-17T22:32:46.083Z,13.90
2022-11-17T22:36:53.728Z,11.20
2022-11-17T22:41:03.832Z,12.80
2022-11-17T22:45:13.333Z,15.70
2022-11-17T22:49:21.242Z,14.70
2022-11-17T22:53:29.684Z,13.60
2022-11-17T22:57:37.476Z,13.20
2022-11-17T23:01:45.459Z,16.00
2022-11-17T23:05:53.118Z,13.40
2022-11-17T23:10:01.275Z,12.50
2022-11-17T23:14:12.593Z,17.10
2022-11-17T23:18:20.591Z,15.20
2022-11-17T23:22:31.072Z,15.30
2022-11-17T23:26:38.249Z,16.10
2022-11-17T23:30:46.560Z,16.20
2022-11-17T23:34:53.973Z,15.10
2022-11-17T23:39:02.421Z,14.00
2022-11-17T23:43:11.346Z,20.80
2022-11-17T23:47:18.984Z,21.60
2022-11-17T23:51:29.857Z,16.10
2022-11-17T23:55:37.809Z,17.30
2022-11-17T23:59:45.186Z,15.70
